Time;durP1;ratioP1;P1;durP2;ratioP2;P2;SDS_P1;SDS_P2;PMS_P1;PMS_P2;Temp;Humidity;BMP_temperature;BMP_pressure;BME280_temperature;BME280_humidity;BME280_pressure;Samples;Min_cycle;Max_cycle;Signal;HPM_P1;HPM_P2
2023/10/20 00:01:41;;;;;;;1.80;1.20;;;;;;;-145.69;57.40;52103.78;4973107;28;20553;-81
2023/10/20 00:04:08;;;;;;;5.25;1.40;;;;;;;-145.69;57.70;52127.53;4972725;28;20199;-81
2023/10/20 00:06:38;;;;;;;5.57;1.75;;;;;;;-145.69;56.99;52135.47;4972808;28;20214;-81
2023/10/20 00:09:05;;;;;;;2.13;1.50;;;;;;;-145.69;57.01;52111.69;4972482;28;20233;-81
2023/10/20 00:11:32;;;;;;;3.28;1.67;;;;;;;-145.69;57.12;52103.78;4972638;28;20207;-80
2023/10/20 00:13:59;;;;;;;4.35;2.53;;;;;;;-145.69;57.30;52131.50;4972760;28;20660;-80
2023/10/20 00:16:26;;;;;;;4.10;1.50;;;;;;;-145.69;57.73;52097.84;4972669;28;20206;-80
2023/10/20 00:18:53;;;;;;;3.65;1.50;;;;;;;-145.69;58.02;52119.63;4986654;28;20268;-80
2023/10/20 00:21:19;;;;;;;2.08;1.35;;;;;;;-145.69;58.35;52135.47;4972411;28;20203;-81
2023/10/20 00:23:47;;;;;;;5.05;1.98;;;;;;;-145.69;58.51;52115.66;4972525;28;20202;-80
2023/10/20 00:26:14;;;;;;;3.65;2.00;;;;;;;-145.69;58.87;52131.50;4972273;28;20207;-80
2023/10/20 00:28:40;;;;;;;3.88;1.60;;;;;;;-145.69;59.67;52099.81;4972424;28;20229;-80
2023/10/20 00:31:07;;;;;;;2.90;1.80;;;;;;;-145.69;59.98;52121.59;4972511;28;20206;-81
2023/10/20 00:33:32;;;;;;;4.35;1.90;;;;;;;-145.69;59.76;52125.56;4972400;28;20693;-81
2023/10/20 00:35:59;;;;;;;3.03;1.60;;;;;;;-145.69;60.45;52125.56;4971938;28;20304;-81
2023/10/20 00:38:25;;;;;;;4.47;1.95;;;;;;;-145.69;60.70;52137.44;4972377;28;20233;-80
2023/10/20 00:40:53;;;;;;;5.93;2.00;;;;;;;-145.69;60.74;52159.22;4972269;28;20212;-80
2023/10/20 00:43:19;;;;;;;2.00;1.80;;;;;;;-145.69;60.74;52169.13;4972292;28;20206;-80
2023/10/20 00:45:47;;;;;;;4.55;2.15;;;;;;;-145.69;61.06;52121.59;4972188;28;20297;-81
2023/10/20 00:48:14;;;;;;;3.97;2.33;;;;;;;-145.69;61.15;52161.19;4972025;28;20209;-80
2023/10/20 00:50:41;;;;;;;3.58;1.77;;;;;;;-145.69;61.95;52139.41;4971351;28;20203;-80
2023/10/20 00:53:07;;;;;;;3.35;2.40;;;;;;;-145.69;61.70;52145.34;4972182;28;20228;-81
2023/10/20 00:55:34;;;;;;;4.85;2.15;;;;;;;-145.69;61.66;52123.56;4972077;28;20654;-80
2023/10/20 00:58:03;;;;;;;7.10;2.47;;;;;;;-145.69;62.02;52153.28;5051485;28;20667;-80
2023/10/20 01:00:29;;;;;;;4.60;2.03;;;;;;;-145.69;61.79;52163.19;4980246;28;20248;-81
2023/10/20 01:02:57;;;;;;;4.03;1.90;;;;;;;-145.69;62.01;52131.50;4971859;28;20620;-80
2023/10/20 01:05:23;;;;;;;2.78;1.73;;;;;;;-145.69;61.89;52151.28;4972001;28;20293;-81
2023/10/20 01:07:50;;;;;;;4.20;2.40;;;;;;;-145.69;62.66;52135.47;4971808;28;20683;-80
2023/10/20 01:10:18;;;;;;;5.32;2.30;;;;;;;-145.69;63.61;52167.13;4970340;28;20466;-80
2023/10/20 01:12:45;;;;;;;2.70;2.10;;;;;;;-145.69;63.36;52151.28;4971182;28;20208;-80
2023/10/20 01:15:15;;;;;;;4.88;1.80;;;;;;;-145.69;62.87;52167.13;4971574;28;20202;-79
2023/10/20 01:17:41;;;;;;;3.90;2.15;;;;;;;-145.69;62.54;52115.66;4952653;28;20203;-80
2023/10/20 01:20:09;;;;;;;5.13;2.10;;;;;;;-145.69;62.52;52129.50;4966292;28;20206;-80
2023/10/20 01:22:36;;;;;;;5.07;2.38;;;;;;;-145.69;62.49;52137.44;4971756;28;20214;-80
2023/10/20 01:25:04;;;;;;;7.82;2.30;;;;;;;-145.69;62.29;52157.25;4971687;28;20208;-81
2023/10/20 01:27:31;;;;;;;3.15;2.13;;;;;;;-145.69;62.37;52147.34;4971675;28;20206;-81
2023/10/20 01:29:57;;;;;;;5.15;1.90;;;;;;;-145.69;62.65;52129.50;4970665;28;20222;-80
2023/10/20 01:32:24;;;;;;;5.10;2.40;;;;;;;-145.69;62.29;52171.09;4971818;28;20221;-80
2023/10/20 01:34:50;;;;;;;5.00;2.17;;;;;;;-145.69;62.44;52161.19;4971714;28;20204;-80
2023/10/20 01:37:17;;;;;;;4.97;2.25;;;;;;;-145.69;61.89;52123.56;4971681;28;20238;-81
2023/10/20 01:39:44;;;;;;;6.60;2.22;;;;;;;-145.69;61.80;52123.56;4971301;28;20201;-81
2023/10/20 01:42:12;;;;;;;4.90;2.35;;;;;;;-145.69;61.58;52123.56;4971329;28;20539;-81
2023/10/20 01:44:39;;;;;;;3.60;2.40;;;;;;;-145.69;61.44;52165.16;4971159;28;20217;-81
2023/10/20 01:47:05;;;;;;;4.43;2.53;;;;;;;-145.69;61.46;52121.59;4971157;28;20198;-81
2023/10/20 01:49:32;;;;;;;6.35;2.03;;;;;;;-145.69;61.62;52121.59;4971119;28;20226;-81
2023/10/20 01:51:58;;;;;;;3.58;2.17;;;;;;;-145.69;61.57;52155.25;4971426;28;20202;-81
2023/10/20 01:54:25;;;;;;;7.65;3.00;;;;;;;-145.69;61.81;52109.72;4971215;28;20208;-81
2023/10/20 01:56:51;;;;;;;5.47;2.58;;;;;;;-145.69;61.39;52171.09;4971114;28;20205;-81
2023/10/20 01:59:19;;;;;;;4.68;2.33;;;;;;;-145.69;61.57;52159.22;4971015;28;20656;-80
2023/10/20 02:01:46;;;;;;;5.28;2.50;;;;;;;-145.69;61.62;52163.19;4970926;28;20206;-80
2023/10/20 02:04:12;;;;;;;4.65;2.40;;;;;;;-145.69;61.47;52159.22;4971127;28;20553;-81
2023/10/20 02:06:39;;;;;;;6.72;2.63;;;;;;;-145.69;61.39;52139.41;4971127;28;20198;-80
2023/10/20 02:09:06;;;;;;;6.93;2.00;;;;;;;-145.69;61.29;52135.47;4970696;28;20229;-80
2023/10/20 02:11:32;;;;;;;5.53;2.28;;;;;;;-145.69;61.14;52165.16;4985484;28;20331;-80
2023/10/20 02:13:59;;;;;;;3.40;2.00;;;;;;;-145.69;61.19;52127.53;4970782;28;20664;-80
2023/10/20 02:16:26;;;;;;;4.60;2.15;;;;;;;-145.69;61.12;52125.56;4971132;28;20201;-81
2023/10/20 02:18:53;;;;;;;3.90;2.00;;;;;;;-145.69;61.29;52123.56;4970399;28;20206;-81
2023/10/20 02:21:20;;;;;;;5.55;2.00;;;;;;;-145.69;61.59;52117.63;4971057;28;20206;-81
2023/10/20 02:23:46;;;;;;;4.25;2.10;;;;;;;-145.69;61.41;52117.63;4970701;28;20297;-81
2023/10/20 02:26:13;;;;;;;4.75;2.53;;;;;;;-145.69;61.67;52119.63;4971124;28;20202;-80
2023/10/20 02:28:39;;;;;;;5.45;2.20;;;;;;;-145.69;62.21;52127.53;4970073;28;20201;-80
2023/10/20 02:31:13;;;;;;;3.97;2.33;;;;;;;-145.69;62.07;52171.09;4951530;28;20231;-80
2023/10/20 02:33:41;;;;;;;6.25;2.03;;;;;;;-145.69;62.49;52131.50;4951566;28;20211;-80
2023/10/20 02:36:07;;;;;;;6.45;2.30;;;;;;;-145.69;62.37;52137.44;4951444;28;20344;-81
2023/10/20 02:38:34;;;;;;;4.32;2.00;;;;;;;-145.69;62.51;52125.56;4963854;28;20199;-80
2023/10/20 02:41:02;;;;;;;3.90;2.08;;;;;;;-145.69;62.67;52159.22;4970464;28;20709;-80
2023/10/20 02:43:28;;;;;;;7.88;2.60;;;;;;;-145.69;62.37;52131.50;4970522;28;20679;-81
2023/10/20 02:45:55;;;;;;;3.00;1.98;;;;;;;-145.69;62.70;52157.25;4968541;28;20195;-81
2023/10/20 02:48:23;;;;;;;3.83;2.05;;;;;;;-145.69;62.88;52131.50;4962055;28;20205;-81
2023/10/20 02:50:51;;;;;;;3.67;1.70;;;;;;;-145.69;62.72;52155.25;4970578;28;20573;-81
2023/10/20 02:53:18;;;;;;;2.72;2.00;;;;;;;-145.69;63.04;52143.38;4970784;28;20217;-81
2023/10/20 02:55:46;;;;;;;5.45;2.20;;;;;;;-145.69;63.15;52151.28;4971150;28;20215;-81
2023/10/20 02:58:13;;;;;;;3.97;2.17;;;;;;;-145.69;63.63;52127.53;4973464;28;20549;-80
2023/10/20 03:00:42;;;;;;;3.22;2.03;;;;;;;-145.69;63.67;52159.22;4973835;28;20209;-80
2023/10/20 03:03:10;;;;;;;3.30;1.77;;;;;;;-145.69;64.34;52127.53;4973784;28;20252;-80
2023/10/20 03:05:37;;;;;;;3.83;1.63;;;;;;;-145.69;64.33;52115.66;4996215;28;20199;-81
2023/10/20 03:08:06;;;;;;;2.45;1.90;;;;;;;-145.69;63.95;52145.34;4973734;28;20202;-80
2023/10/20 03:10:32;;;;;;;4.18;1.80;;;;;;;-145.69;64.65;52141.41;4973513;28;20261;-80
2023/10/20 03:12:59;;;;;;;4.47;2.33;;;;;;;-145.69;65.13;52175.06;4973550;28;20214;-81
2023/10/20 03:15:26;;;;;;;3.80;2.10;;;;;;;-145.69;64.53;52163.19;4973542;28;20268;-81
2023/10/20 03:17:52;;;;;;;5.25;2.25;;;;;;;-145.69;65.01;52155.25;4973561;28;20216;-80
2023/10/20 03:20:24;;;;;;;3.10;2.20;;;;;;;-145.69;65.02;52159.22;4973519;28;20198;-81
2023/10/20 03:22:51;;;;;;;3.47;1.88;;;;;;;-145.69;65.26;52145.34;4973620;28;20202;-80
2023/10/20 03:25:19;;;;;;;3.95;2.17;;;;;;;-145.69;65.29;52151.28;4973017;28;20202;-80
2023/10/20 03:27:45;;;;;;;4.07;2.40;;;;;;;-145.69;65.81;52137.44;4973560;28;20206;-81
2023/10/20 03:30:12;;;;;;;5.82;1.90;;;;;;;-145.69;65.88;52157.25;4972823;28;20226;-80
2023/10/20 03:32:39;;;;;;;5.93;2.38;;;;;;;-145.69;66.07;52167.13;4973225;28;20210;-81
2023/10/20 03:35:07;;;;;;;4.72;2.13;;;;;;;-145.69;65.53;52155.25;4972827;28;20285;-80
2023/10/20 03:37:34;;;;;;;3.08;1.70;;;;;;;-145.69;65.71;52190.91;4973341;28;20248;-81
2023/10/20 03:40:00;;;;;;;3.00;1.80;;;;;;;-145.69;66.10;52159.22;4973266;28;20546;-80
2023/10/20 03:42:28;;;;;;;5.10;1.73;;;;;;;-145.69;65.55;52169.13;4972932;28;20202;-80
2023/10/20 03:44:55;;;;;;;3.58;1.60;;;;;;;-145.69;65.26;52163.19;4973182;28;20213;-81
2023/10/20 03:47:27;;;;;;;5.55;1.80;;;;;;;-145.69;65.20;52151.28;4972762;28;20203;-80
2023/10/20 03:49:57;;;;;;;3.17;1.48;;;;;;;-145.69;65.00;52147.34;4973031;28;20264;-81
2023/10/20 03:52:24;;;;;;;6.20;1.90;;;;;;;-145.69;64.98;52133.47;4973045;28;20195;-81
2023/10/20 03:54:52;;;;;;;4.10;1.52;;;;;;;-145.69;64.56;52151.28;4973196;28;20225;-80
2023/10/20 03:57:19;;;;;;;6.55;2.00;;;;;;;-145.69;64.71;52167.13;4973153;28;20288;-80
2023/10/20 03:59:47;;;;;;;3.25;1.80;;;;;;;-145.69;64.90;52157.25;4972901;28;20739;-81
2023/10/20 04:02:14;;;;;;;5.15;2.03;;;;;;;-145.69;64.95;52155.25;4972692;28;20232;-81
2023/10/20 04:04:40;;;;;;;2.83;1.52;;;;;;;-145.69;64.81;52143.38;4972912;28;20210;-81
2023/10/20 04:07:08;;;;;;;2.17;1.50;;;;;;;-145.69;64.83;52163.19;4985957;28;20401;-81
2023/10/20 04:09:36;;;;;;;4.28;1.60;;;;;;;-145.69;64.96;52147.34;4972713;28;20649;-81
2023/10/20 04:12:03;;;;;;;4.38;1.70;;;;;;;-145.69;65.20;52137.44;4972128;28;20256;-81
2023/10/20 04:14:30;;;;;;;3.13;1.65;;;;;;;-145.69;64.72;52147.34;4972800;28;20632;-81
2023/10/20 04:16:58;;;;;;;2.47;1.48;;;;;;;-145.69;64.59;52155.25;4971827;28;20199;-81
2023/10/20 04:19:25;;;;;;;4.03;1.45;;;;;;;-145.69;64.06;52147.34;4972914;28;20203;-81
2023/10/20 04:21:51;;;;;;;2.83;1.55;;;;;;;-145.69;64.07;52163.19;4972597;28;20199;-81
2023/10/20 04:24:20;;;;;;;3.25;1.60;;;;;;;-145.69;63.89;52159.22;4972528;28;20633;-80
2023/10/20 04:26:47;;;;;;;2.10;1.25;;;;;;;-145.69;62.34;52147.34;4972225;28;20199;-80
2023/10/20 04:29:34;;;;;;;2.75;1.42;;;;;;;-145.69;61.76;52153.28;4972686;28;20202;-81
2023/10/20 04:43:34;;;;;;;5.82;2.10;;;;;;;-145.69;58.73;52151.28;4972647;28;20209;-81
2023/10/20 04:51:45;;;;;;;2.83;1.50;;;;;;;-145.69;59.00;52147.34;4972235;28;20327;-81
2023/10/20 04:54:19;;;;;;;4.03;1.90;;;;;;;-145.69;58.63;52149.31;4972335;28;20206;-81
2023/10/20 04:57:18;;;;;;;2.22;1.60;;;;;;;-145.69;58.10;52125.56;4974782;28;20194;-81
2023/10/20 04:59:35;;;;;;;3.65;2.00;;;;;;;-145.69;57.95;52155.25;4953405;28;20256;-81
2023/10/20 05:02:10;;;;;;;4.93;1.73;;;;;;;-145.69;57.40;52135.47;4952842;28;20198;-82
2023/10/20 05:04:40;;;;;;;3.05;1.75;;;;;;;-145.69;57.56;52133.47;4955123;28;20953;-81
2023/10/20 05:07:08;;;;;;;3.33;2.10;;;;;;;-145.69;57.16;52147.34;4972139;28;20210;-81
2023/10/20 05:09:40;;;;;;;3.05;1.60;;;;;;;-145.69;56.80;52127.53;4972294;28;20211;-81
2023/10/20 05:12:07;;;;;;;3.13;2.00;;;;;;;-145.69;56.77;52127.53;4972350;28;20198;-81
2023/10/20 05:14:34;;;;;;;2.90;1.98;;;;;;;-145.69;57.01;52147.34;4971811;28;20205;-82
2023/10/20 05:17:00;;;;;;;2.47;2.05;;;;;;;-145.69;56.72;52123.56;4971770;28;20604;-81
2023/10/20 05:19:31;;;;;;;5.95;1.92;;;;;;;-145.69;56.10;52127.53;4971290;28;20210;-81
2023/10/20 05:21:59;;;;;;;6.22;2.47;;;;;;;-145.69;56.55;52147.34;4971916;28;20706;-81
2023/10/20 05:24:26;;;;;;;4.65;2.17;;;;;;;-145.69;56.64;52119.63;4971451;28;20688;-80
2023/10/20 05:26:54;;;;;;;3.08;2.25;;;;;;;-145.69;56.67;52147.34;4971482;28;20281;-81
2023/10/20 05:29:21;;;;;;;4.75;2.50;;;;;;;-145.69;57.01;52117.63;4971907;28;20198;-81
2023/10/20 05:31:47;;;;;;;2.45;2.10;;;;;;;-145.69;56.25;52131.50;4971471;28;20233;-80
2023/10/20 05:34:14;;;;;;;4.03;2.45;;;;;;;-145.69;56.28;52151.28;4971570;28;20767;-80
2023/10/20 05:36:42;;;;;;;3.85;2.40;;;;;;;-145.69;56.58;52149.31;4970976;28;20222;-81
2023/10/20 05:39:13;;;;;;;5.50;2.33;;;;;;;-145.69;56.33;52179.03;4971614;28;20202;-81
2023/10/20 05:41:41;;;;;;;4.35;2.28;;;;;;;-145.69;56.32;52109.72;4971082;28;20594;-80
2023/10/20 05:44:11;;;;;;;4.22;2.67;;;;;;;-145.69;55.96;52127.53;4971141;28;20208;-80
2023/10/20 05:46:40;;;;;;;3.47;2.25;;;;;;;-145.69;56.34;52123.56;4971544;28;20569;-80
2023/10/20 05:49:08;;;;;;;3.63;2.08;;;;;;;-145.69;56.83;52123.56;4971355;28;20209;-81
2023/10/20 05:51:34;;;;;;;4.20;2.35;;;;;;;-145.69;56.74;52127.53;4971200;28;20225;-80
2023/10/20 05:54:03;;;;;;;3.35;2.08;;;;;;;-145.69;56.74;52135.47;4971182;28;20199;-80
2023/10/20 05:56:31;;;;;;;5.70;2.88;;;;;;;-145.69;57.10;52133.47;4971193;28;20240;-81
2023/10/20 05:58:57;;;;;;;4.78;2.40;;;;;;;-145.69;56.93;52137.44;4971273;28;20229;-80
2023/10/20 06:01:24;;;;;;;4.13;2.92;;;;;;;-145.69;57.36;52131.50;4971408;28;20202;-80
2023/10/20 06:03:51;;;;;;;3.50;2.63;;;;;;;-145.69;57.28;52141.41;4970946;28;20208;-80
2023/10/20 06:06:18;;;;;;;5.18;2.80;;;;;;;-145.69;57.64;52151.28;4971393;28;20248;-80
2023/10/20 06:08:44;;;;;;;3.72;2.95;;;;;;;-145.69;57.91;52141.41;4970365;28;20198;-80
2023/10/20 06:11:11;;;;;;;5.53;3.33;;;;;;;-145.69;57.63;52165.16;5031087;28;20223;-80
2023/10/20 06:13:39;;;;;;;5.80;3.22;;;;;;;-145.69;57.55;52159.22;5072768;28;20198;-80
2023/10/20 06:16:09;;;;;;;8.55;4.03;;;;;;;-145.69;57.38;52165.16;5073007;28;20210;-80
2023/10/20 06:18:36;;;;;;;5.55;3.60;;;;;;;-145.69;56.27;52121.59;5072706;28;20207;-79
2023/10/20 06:21:04;;;;;;;7.20;4.47;;;;;;;-145.69;55.77;52103.78;5071607;28;20954;-80
2023/10/20 06:23:31;;;;;;;6.20;4.03;;;;;;;-145.69;54.74;52115.66;5072774;28;20202;-81
2023/10/20 06:25:57;;;;;;;9.23;4.07;;;;;;;-145.69;54.00;52095.84;5072702;28;20198;-80
2023/10/20 06:28:24;;;;;;;6.13;4.55;;;;;;;-145.69;53.91;52125.56;5072721;28;20199;-80
2023/10/20 06:30:53;;;;;;;8.30;4.53;;;;;;;-145.69;54.03;52123.56;5073935;28;20229;-80
2023/10/20 06:33:19;;;;;;;7.00;4.72;;;;;;;-145.69;53.45;52113.66;5076416;28;20199;-80
2023/10/20 06:36:01;;;;;;;8.50;4.80;;;;;;;-145.69;55.89;52143.38;4975622;28;20296;-80
2023/10/20 06:38:34;;;;;;;14.52;5.50;;;;;;;-145.69;56.36;52151.28;4974165;28;20202;-80
2023/10/20 06:41:01;;;;;;;10.45;5.38;;;;;;;-145.69;56.43;52163.19;4973988;28;20252;-80
2023/10/20 06:43:28;;;;;;;8.77;5.50;;;;;;;-145.69;56.93;52149.31;4974221;28;20201;-80
2023/10/20 06:46:00;;;;;;;8.70;5.43;;;;;;;-145.69;56.85;52137.44;4974039;28;20206;-80
2023/10/20 06:48:27;;;;;;;9.10;5.28;;;;;;;-145.69;56.85;52135.47;4973958;28;20293;-80
2023/10/20 06:50:54;;;;;;;8.68;5.53;;;;;;;-145.69;57.19;52123.56;4973845;28;20291;-80
2023/10/20 06:53:20;;;;;;;14.88;6.22;;;;;;;-145.69;56.72;52143.38;4974101;28;20217;-80
2023/10/20 06:55:48;;;;;;;11.00;5.38;;;;;;;-145.69;56.68;52159.22;4973550;28;20285;-80
2023/10/20 06:58:17;;;;;;;7.45;5.13;;;;;;;-145.69;56.40;52135.47;4974147;28;20240;-80
2023/10/20 07:00:44;;;;;;;12.75;5.57;;;;;;;-145.69;56.55;52145.34;4973852;28;20202;-80
2023/10/20 07:03:12;;;;;;;10.63;5.53;;;;;;;-145.69;56.31;52129.50;5002911;28;20744;-80
2023/10/20 07:05:39;;;;;;;8.93;5.80;;;;;;;-145.69;56.10;52119.63;4981872;28;20203;-80
2023/10/20 07:08:06;;;;;;;8.77;5.32;;;;;;;-145.69;55.95;52131.50;4973878;28;20252;-80
2023/10/20 07:10:37;;;;;;;11.00;5.85;;;;;;;-145.69;55.62;52143.38;4973255;28;20233;-80
2023/10/20 07:13:06;;;;;;;9.20;5.63;;;;;;;-145.69;55.59;52141.41;4973494;28;20198;-79
2023/10/20 07:15:33;;;;;;;8.95;5.10;;;;;;;-145.69;55.39;52137.44;4973383;28;20206;-80
2023/10/20 07:18:00;;;;;;;7.70;5.40;;;;;;;-145.69;55.34;52117.63;4973826;28;20202;-80
2023/10/20 07:20:29;;;;;;;10.38;5.47;;;;;;;-145.69;55.18;52095.84;4973626;28;20205;-80
2023/10/20 07:22:55;;;;;;;7.93;5.40;;;;;;;-145.69;54.74;52111.69;4973637;28;20209;-80
2023/10/20 07:25:21;;;;;;;9.13;5.13;;;;;;;-145.69;54.72;52165.16;4973482;28;20202;-80
2023/10/20 07:27:48;;;;;;;9.48;4.97;;;;;;;-145.69;54.89;52097.84;4973740;28;20244;-80
2023/10/20 07:30:16;;;;;;;8.75;5.13;;;;;;;-145.69;54.53;52163.19;4979790;28;20209;-80
2023/10/20 07:32:43;;;;;;;8.95;5.28;;;;;;;-145.69;54.17;52103.78;4980134;28;20206;-80
2023/10/20 07:35:11;;;;;;;7.05;4.82;;;;;;;-145.69;54.31;52107.72;4977293;28;20194;-81
2023/10/20 07:37:39;;;;;;;8.35;5.03;;;;;;;-145.69;53.07;52143.38;4980468;28;20202;-81
2023/10/20 07:40:08;;;;;;;9.07;4.60;;;;;;;-145.69;52.87;52125.56;4978273;28;20202;-80
2023/10/20 07:42:35;;;;;;;9.23;4.50;;;;;;;-145.69;52.64;52125.56;4976705;28;20209;-80
2023/10/20 07:45:02;;;;;;;8.32;4.93;;;;;;;-145.69;52.05;52103.78;4976185;28;20198;-80
2023/10/20 07:47:29;;;;;;;8.75;4.70;;;;;;;-145.69;51.73;52125.56;4978000;28;20206;-82
2023/10/20 07:49:57;;;;;;;5.13;4.20;;;;;;;-145.69;52.19;52123.56;4977335;28;20269;-81
2023/10/20 07:52:24;;;;;;;6.43;4.25;;;;;;;-145.69;51.68;52087.94;4978133;28;20229;-81
2023/10/20 07:54:52;;;;;;;6.85;4.15;;;;;;;-145.69;51.95;52111.69;4975336;28;20202;-80
2023/10/20 07:57:20;;;;;;;7.07;4.70;;;;;;;-145.69;51.08;52115.66;4973125;28;20661;-81
2023/10/20 07:59:47;;;;;;;7.90;4.32;;;;;;;-145.69;51.17;52115.66;4973064;28;20402;-80
2023/10/20 08:02:14;;;;;;;8.05;3.75;;;;;;;-145.69;51.27;52099.81;4972239;28;20194;-81
2023/10/20 08:04:41;;;;;;;6.80;4.15;;;;;;;-145.69;50.65;52091.88;4973360;28;20210;-81
2023/10/20 08:07:09;;;;;;;6.03;3.50;;;;;;;-145.69;50.62;52091.88;4976077;28;20565;-81
2023/10/20 08:09:36;;;;;;;7.28;3.45;;;;;;;-145.69;50.78;52107.72;4984136;28;20202;-81
2023/10/20 08:12:04;;;;;;;6.28;3.97;;;;;;;-145.69;49.49;52111.69;4972633;28;20321;-81
2023/10/20 08:14:33;;;;;;;7.47;4.38;;;;;;;-145.69;50.78;52115.66;4972919;28;20210;-80
2023/10/20 08:17:03;;;;;;;4.95;3.72;;;;;;;-145.69;49.54;52103.78;4972556;28;20636;-80
2023/10/20 08:19:30;;;;;;;9.57;5.03;;;;;;;-145.69;49.76;52087.94;4972886;28;20207;-80
2023/10/20 08:21:57;;;;;;;9.68;5.35;;;;;;;-145.69;49.87;52076.03;4972716;28;20561;-80
2023/10/20 08:24:24;;;;;;;6.05;4.43;;;;;;;-145.69;51.07;52093.88;4972740;28;20206;-80
2023/10/20 08:26:52;;;;;;;4.97;3.50;;;;;;;-145.69;51.08;52076.03;4972643;28;20202;-81
2023/10/20 08:29:20;;;;;;;6.82;4.13;;;;;;;-145.69;51.68;52078.03;4972437;28;20661;-79
2023/10/20 08:31:46;;;;;;;5.28;3.47;;;;;;;-145.69;52.96;52083.97;4972088;28;20230;-80
2023/10/20 08:34:13;;;;;;;5.63;3.45;;;;;;;-145.69;53.45;52044.38;4972305;28;20202;-80
2023/10/20 08:36:39;;;;;;;4.88;3.50;;;;;;;-145.69;53.63;52083.97;4956658;28;20257;-80
2023/10/20 08:39:13;;;;;;;4.72;3.25;;;;;;;-145.69;54.39;52095.84;4958940;28;20194;-80
2023/10/20 08:41:41;;;;;;;6.63;3.35;;;;;;;-145.69;54.76;52087.94;4972314;28;20676;-81
2023/10/20 08:44:08;;;;;;;5.90;3.60;;;;;;;-145.69;54.27;52119.63;4972391;28;20206;-81
2023/10/20 08:46:37;;;;;;;11.18;3.72;;;;;;;-145.69;54.58;52099.81;4972347;28;20213;-83
2023/10/20 08:49:07;;;;;;;7.15;3.47;;;;;;;-145.69;54.23;52111.69;4972466;28;20230;-82
2023/10/20 08:51:34;;;;;;;4.47;3.00;;;;;;;-145.69;54.11;52101.78;4972376;28;20233;-80
2023/10/20 08:54:02;;;;;;;5.97;3.67;;;;;;;-145.69;54.02;52087.94;4971144;28;20224;-80
2023/10/20 08:56:28;;;;;;;4.05;3.00;;;;;;;-145.69;53.78;52083.97;4971978;28;20198;-81
2023/10/20 08:58:55;;;;;;;4.47;2.83;;;;;;;-145.69;53.38;52074.06;4972000;28;20202;-80
2023/10/20 09:01:21;;;;;;;3.90;2.65;;;;;;;-145.69;52.88;52115.66;4972179;28;20206;-81
2023/10/20 09:03:50;;;;;;;4.22;3.10;;;;;;;-145.69;52.20;52083.97;4973844;28;20202;-81
2023/10/20 09:06:17;;;;;;;3.30;2.33;;;;;;;-145.69;52.40;52076.03;4971986;28;20323;-81
2023/10/20 09:08:47;;;;;;;4.75;2.80;;;;;;;-145.69;52.11;52080.00;4971739;28;20206;-81
2023/10/20 09:11:13;;;;;;;4.38;2.75;;;;;;;-145.69;52.08;52068.13;5023793;28;20249;-81
2023/10/20 09:13:43;;;;;;;13.48;6.15;;;;;;;-145.69;51.35;52089.91;5073303;28;20641;-79
2023/10/20 09:16:11;;;;;;;8.63;3.50;;;;;;;-145.69;51.20;52048.31;5073414;28;20203;-80
2023/10/20 09:18:45;;;;;;;3.72;2.63;;;;;;;-145.69;50.95;52036.44;5073153;28;20222;-81
2023/10/20 09:21:14;;;;;;;4.90;2.55;;;;;;;-145.69;50.13;52056.25;5073304;28;20210;-81
2023/10/20 09:23:41;;;;;;;3.97;1.98;;;;;;;-145.69;50.92;52050.31;5073422;28;20292;-82
2023/10/20 09:26:08;;;;;;;3.80;2.28;;;;;;;-145.69;49.58;52060.22;5012088;28;20202;-81
2023/10/20 09:28:35;;;;;;;2.38;1.60;;;;;;;-145.69;48.88;52072.09;4976339;28;20202;-81
2023/10/20 09:31:02;;;;;;;2.10;1.58;;;;;;;-145.69;47.48;52028.53;4974394;28;20201;-80
2023/10/20 09:33:28;;;;;;;2.83;1.50;;;;;;;-145.69;46.83;52052.28;4974437;28;20209;-81
2023/10/20 09:35:56;;;;;;;2.40;1.52;;;;;;;-145.69;46.50;52024.56;4974367;28;20237;-80
2023/10/20 09:38:26;;;;;;;1.75;1.30;;;;;;;-145.69;45.19;52018.63;4960140;28;20202;-81
2023/10/20 09:41:04;;;;;;;0.90;0.80;;;;;;;-145.69;44.92;51994.88;4961903;28;20202;-80
2023/10/20 09:43:32;;;;;;;1.27;1.10;;;;;;;-145.69;46.07;52020.59;4974317;28;20288;-81
2023/10/20 09:46:10;;;;;;;3.58;0.80;;;;;;;-145.69;45.19;52000.81;4978414;28;20210;-81
2023/10/20 09:48:40;;;;;;;2.03;0.60;;;;;;;-145.69;46.33;52032.47;4981544;28;20213;-81
2023/10/20 09:51:08;;;;;;;2.22;0.60;;;;;;;-145.69;45.08;52020.59;4993924;28;20236;-80
2023/10/20 09:53:36;;;;;;;1.52;0.55;;;;;;;-145.69;45.39;52002.78;5041967;28;20190;-80
2023/10/20 09:56:04;;;;;;;0.47;0.43;;;;;;;-145.69;43.96;52024.56;5000172;28;20683;-80
2023/10/20 09:58:33;;;;;;;0.88;0.45;;;;;;;-145.69;43.21;52006.75;4972219;28;20237;-81
2023/10/20 10:01:00;;;;;;;0.50;0.40;;;;;;;-145.69;43.93;52014.66;4971841;28;20209;-80
2023/10/20 10:03:34;;;;;;;3.28;0.98;;;;;;;-145.69;42.79;52020.59;4972280;28;20213;-80
2023/10/20 10:06:01;;;;;;;0.50;0.50;;;;;;;-145.69;43.12;52008.72;4974051;28;20201;-80
2023/10/20 10:08:28;;;;;;;0.95;0.50;;;;;;;-145.69;42.67;51984.97;4975299;28;20292;-80
2023/10/20 10:10:56;;;;;;;0.47;0.40;;;;;;;-145.69;42.20;51984.97;4976165;28;20240;-80
2023/10/20 10:13:34;;;;;;;0.93;0.50;;;;;;;-145.69;41.96;52006.75;4976510;28;20233;-80
2023/10/20 10:16:10;;;;;;;1.20;0.40;;;;;;;-145.69;42.33;51977.03;4980407;28;20202;-80
2023/10/20 10:18:47;;;;;;;0.65;0.50;;;;;;;-145.69;42.67;52016.66;4987394;28;20228;-80
2023/10/20 10:21:25;;;;;;;0.95;0.40;;;;;;;-145.69;42.03;51998.81;4979744;28;20204;-80
2023/10/20 10:24:07;;;;;;;0.65;0.40;;;;;;;-145.69;43.66;52018.63;4979754;28;20263;-79
2023/10/20 10:26:44;;;;;;;0.95;0.60;;;;;;;-145.69;44.96;51998.81;4977656;28;20221;-80
2023/10/20 10:29:11;;;;;;;0.82;0.50;;;;;;;-145.69;43.61;52032.47;4979471;28;20205;-81
2023/10/20 10:31:38;;;;;;;0.30;0.30;;;;;;;-145.69;43.41;52036.44;4978841;28;20460;-81
2023/10/20 10:34:07;;;;;;;0.45;0.40;;;;;;;-145.69;43.34;52016.66;4983747;28;20201;-81
2023/10/20 10:36:43;;;;;;;0.40;0.40;;;;;;;-145.69;42.77;52000.81;4982910;28;20248;-81
2023/10/20 10:39:20;;;;;;;0.38;0.35;;;;;;;-145.69;43.07;51992.88;4981378;28;20212;-81
2023/10/20 10:41:52;;;;;;;0.38;0.30;;;;;;;-145.69;42.76;52020.59;4974869;28;20203;-82
2023/10/20 10:44:23;;;;;;;0.63;0.43;;;;;;;-145.69;43.37;52018.63;4963142;28;20214;-81
2023/10/20 10:46:51;;;;;;;0.88;0.50;;;;;;;-145.69;43.13;52018.63;4962918;28;20211;-82
2023/10/20 10:49:22;;;;;;;0.55;0.30;;;;;;;-145.69;43.13;52016.66;4961017;28;20241;-82
2023/10/20 10:51:50;;;;;;;0.73;0.50;;;;;;;-145.69;43.32;51992.88;4960904;28;20222;-80
2023/10/20 10:54:17;;;;;;;0.40;0.40;;;;;;;-145.69;43.12;51965.16;4974387;28;20202;-82
2023/10/20 10:56:45;;;;;;;0.75;0.60;;;;;;;-145.69;43.78;52000.81;4976561;28;20217;-82
2023/10/20 10:59:14;;;;;;;1.05;0.75;;;;;;;-145.69;44.68;51982.97;4979258;28;20202;-81
2023/10/20 11:01:41;;;;;;;0.60;0.55;;;;;;;-145.69;44.79;52004.75;4973773;28;20710;-81
2023/10/20 11:04:10;;;;;;;0.57;0.50;;;;;;;-145.69;44.83;52026.53;4977489;28;20209;-81
2023/10/20 11:06:38;;;;;;;2.60;0.50;;;;;;;-145.69;44.60;52004.75;4982996;28;20202;-81
2023/10/20 11:09:10;;;;;;;0.93;0.60;;;;;;;-145.69;44.32;52004.75;4974644;28;20206;-81
2023/10/20 11:11:42;;;;;;;1.70;0.30;;;;;;;-145.69;43.92;51992.88;4979782;28;20555;-82
2023/10/20 11:14:09;;;;;;;0.63;0.30;;;;;;;-145.69;43.86;52020.59;4985451;28;20233;-81
2023/10/20 11:16:39;;;;;;;0.70;0.50;;;;;;;-145.69;42.77;52006.75;4977889;28;20268;-81
2023/10/20 11:19:06;;;;;;;0.98;0.30;;;;;;;-145.69;43.79;52004.75;4985346;28;20203;-82
2023/10/20 11:21:46;;;;;;;1.55;0.50;;;;;;;-145.69;42.71;51994.88;4980151;28;20203;-81
2023/10/20 11:24:28;;;;;;;0.63;0.40;;;;;;;-145.69;44.28;52012.69;4985676;28;20205;-81
2023/10/20 11:26:59;;;;;;;0.65;0.30;;;;;;;-145.69;43.58;52016.66;4982420;28;20916;-81
2023/10/20 11:29:29;;;;;;;0.57;0.35;;;;;;;-145.69;42.55;52026.53;4980984;28;20202;-81
2023/10/20 11:32:05;;;;;;;0.25;0.25;;;;;;;-145.69;42.75;52006.75;4982854;28;20268;-81
2023/10/20 11:34:32;;;;;;;0.45;0.30;;;;;;;-145.69;42.28;52014.66;4981661;28;20201;-81
2023/10/20 11:36:59;;;;;;;0.57;0.30;;;;;;;-145.69;43.09;51996.84;4983337;28;20324;-81
2023/10/20 11:39:27;;;;;;;0.30;0.30;;;;;;;-145.69;41.69;51998.81;4968382;28;20201;-81